createdAt,value
2023-01-17T00:01:28.836Z,3.88
2023-01-17T00:04:15.183Z,4.04
2023-01-17T00:07:00.304Z,3.47
2023-01-17T00:09:45.678Z,3.75
2023-01-17T00:12:13.164Z,3.31
2023-01-17T00:14:40.646Z,3.66
2023-01-17T00:17:08.083Z,3.53
2023-01-17T00:19:54.662Z,3.29
2023-01-17T00:22:41.447Z,3.23
2023-01-17T00:25:29.413Z,3.57
2023-01-17T00:27:55.903Z,3.58
2023-01-17T00:30:22.941Z,4.03
2023-01-17T00:32:49.400Z,3.71
2023-01-17T00:35:17.478Z,4.03
2023-01-17T00:37:43.923Z,3.84
2023-01-17T00:40:11.378Z,4.06
2023-01-17T00:42:37.870Z,3.81
2023-01-17T00:45:23.701Z,3.84
2023-01-17T00:48:09.184Z,4.01
2023-01-17T00:50:56.395Z,3.96
2023-01-17T00:53:41.594Z,4.11
2023-01-17T00:56:27.050Z,4.09
2023-01-17T00:59:12.831Z,4.00
2023-01-17T01:01:58.283Z,3.93
2023-01-17T01:04:43.763Z,4.10
2023-01-17T01:07:30.213Z,4.12
2023-01-17T01:10:15.632Z,4.07
2023-01-17T01:13:00.949Z,3.99
2023-01-17T01:15:46.083Z,4.25
2023-01-17T01:18:31.529Z,4.20
2023-01-17T01:21:21.024Z,4.14
2023-01-17T01:24:07.699Z,4.27
2023-01-17T01:26:53.139Z,4.33
2023-01-17T01:29:38.289Z,4.18
2023-01-17T01:32:23.748Z,4.22
2023-01-17T01:34:51.220Z,4.18
2023-01-17T01:37:18.667Z,4.14
2023-01-17T01:39:47.447Z,4.13
2023-01-17T01:42:16.166Z,4.10
2023-01-17T01:44:48.546Z,4.09
2023-01-17T01:47:22.175Z,4.17
2023-01-17T01:49:50.368Z,4.17
2023-01-17T01:52:19.261Z,4.11
2023-01-17T01:54:51.540Z,4.08
2023-01-17T01:57:22.588Z,4.01
2023-01-17T01:59:53.707Z,4.04
2023-01-17T02:02:21.325Z,3.94
2023-01-17T02:04:49.211Z,4.00
2023-01-17T02:07:20.818Z,3.83
2023-01-17T02:09:50.063Z,3.87
2023-01-17T02:12:18.549Z,3.85
2023-01-17T02:14:46.038Z,3.87
2023-01-17T02:17:21.107Z,3.91
2023-01-17T02:20:16.121Z,3.89
2023-01-17T02:23:15.313Z,3.90
2023-01-17T02:26:05.910Z,3.97
2023-01-17T02:28:43.805Z,3.86
2023-01-17T02:31:15.885Z,3.92
2023-01-17T02:33:48.100Z,3.92
2023-01-17T02:36:19.353Z,3.82
2023-01-17T02:38:52.444Z,3.91
2023-01-17T02:41:22.959Z,3.87
2023-01-17T02:43:52.167Z,3.77
2023-01-17T02:46:21.013Z,3.80
2023-01-17T02:48:48.939Z,3.79
2023-01-17T02:51:29.873Z,3.74
2023-01-17T02:54:07.236Z,3.67
2023-01-17T02:56:44.785Z,3.63
2023-01-17T02:59:18.691Z,3.64
2023-01-17T03:02:01.594Z,3.62
2023-01-17T03:04:33.051Z,3.64
2023-01-17T03:07:02.859Z,3.65
2023-01-17T03:09:31.481Z,3.57
2023-01-17T03:11:59.854Z,3.54
2023-01-17T03:14:27.337Z,3.50
2023-01-17T03:16:56.741Z,3.49
2023-01-17T03:19:24.256Z,3.45
2023-01-17T03:21:51.716Z,3.39
2023-01-17T03:24:19.277Z,3.39
2023-01-17T03:26:47.919Z,3.35
2023-01-17T03:29:16.459Z,3.41
2023-01-17T03:31:43.992Z,3.31
2023-01-17T03:34:12.837Z,3.18
2023-01-17T03:36:40.336Z,3.30
2023-01-17T03:39:07.808Z,3.23
2023-01-17T03:41:35.336Z,3.25
2023-01-17T03:44:02.834Z,3.26
2023-01-17T03:46:30.329Z,3.23
2023-01-17T03:48:57.801Z,3.23
2023-01-17T03:51:27.030Z,3.34
2023-01-17T03:53:54.533Z,3.23
2023-01-17T03:56:22.344Z,3.29
2023-01-17T03:58:49.828Z,3.32
2023-01-17T04:01:17.341Z,3.30
2023-01-17T04:03:44.870Z,3.26
2023-01-17T04:06:12.421Z,3.31
2023-01-17T04:08:41.638Z,3.23
2023-01-17T04:11:09.132Z,3.21
2023-01-17T04:13:36.687Z,3.21
2023-01-17T04:16:04.367Z,3.15
2023-01-17T04:18:31.820Z,3.16
2023-01-17T04:20:59.272Z,3.09
2023-01-17T04:23:26.829Z,3.08
2023-01-17T04:25:55.613Z,3.10
2023-01-17T04:28:23.057Z,3.20
2023-01-17T04:30:50.531Z,3.12
2023-01-17T04:33:18.991Z,3.19
2023-01-17T04:35:46.461Z,3.13
2023-01-17T04:38:13.929Z,3.14
2023-01-17T04:40:41.453Z,3.27
2023-01-17T04:43:10.273Z,3.23
2023-01-17T04:45:38.730Z,3.14
2023-01-17T04:48:07.153Z,3.14
2023-01-17T04:50:35.827Z,3.20
2023-01-17T04:53:03.276Z,3.13
2023-01-17T04:55:30.799Z,3.16
2023-01-17T04:57:58.263Z,3.09
2023-01-17T05:00:27.082Z,2.92
2023-01-17T05:02:54.558Z,3.08
2023-01-17T05:05:22.048Z,3.05
2023-01-17T05:07:54.818Z,2.90
2023-01-17T05:10:22.353Z,3.04
2023-01-17T05:12:55.249Z,3.01
2023-01-17T05:15:23.071Z,2.96
2023-01-17T05:17:53.468Z,3.00
2023-01-17T05:20:20.967Z,2.99
2023-01-17T05:22:55.386Z,2.94
2023-01-17T05:25:23.330Z,3.04
2023-01-17T05:27:50.806Z,2.99
2023-01-17T05:30:18.852Z,2.85
2023-01-17T05:32:46.451Z,2.88
2023-01-17T05:35:15.446Z,2.91
2023-01-17T05:37:48.813Z,2.92
2023-01-17T05:40:16.765Z,2.86
2023-01-17T05:42:46.560Z,2.86
2023-01-17T05:45:16.849Z,2.72
2023-01-17T05:47:44.508Z,2.79
2023-01-17T05:50:12.516Z,2.81
2023-01-17T05:52:41.859Z,2.67
2023-01-17T05:55:10.179Z,2.65
2023-01-17T05:57:37.614Z,2.70
2023-01-17T06:00:06.039Z,2.66
2023-01-17T06:02:33.509Z,2.70
2023-01-17T06:05:03.367Z,2.74
2023-01-17T06:07:31.021Z,2.85
2023-01-17T06:09:59.804Z,2.75
2023-01-17T06:12:27.322Z,2.68
2023-01-17T06:14:54.922Z,2.76
2023-01-17T06:17:22.524Z,2.86
2023-01-17T06:19:50.018Z,2.90
2023-01-17T06:22:17.486Z,2.77
2023-01-17T06:24:44.924Z,2.70
2023-01-17T06:27:13.704Z,2.65
2023-01-17T06:29:41.146Z,2.72
2023-01-17T06:32:08.588Z,2.69
2023-01-17T06:34:36.059Z,2.66
2023-01-17T06:37:03.600Z,2.64
2023-01-17T06:39:31.105Z,2.60
2023-01-17T06:41:58.778Z,2.55
2023-01-17T06:44:27.782Z,2.61
2023-01-17T06:46:55.308Z,2.47
2023-01-17T06:49:22.790Z,2.53
2023-01-17T06:51:50.523Z,2.47
2023-01-17T06:54:18.846Z,2.52
2023-01-17T06:56:46.359Z,2.43
2023-01-17T06:59:13.867Z,2.36
2023-01-17T07:01:42.707Z,2.40
2023-01-17T07:04:10.225Z,2.40
2023-01-17T07:06:38.169Z,2.19
2023-01-17T07:09:06.006Z,2.33
2023-01-17T07:11:33.537Z,2.25
2023-01-17T07:14:01.057Z,2.17
2023-01-17T07:16:28.619Z,2.12
2023-01-17T07:18:58.114Z,2.31
2023-01-17T07:21:25.595Z,2.23
2023-01-17T07:23:53.082Z,2.22
2023-01-17T07:26:20.542Z,2.26
2023-01-17T07:28:47.983Z,2.15
2023-01-17T07:31:15.436Z,2.13
2023-01-17T07:33:42.903Z,2.22
2023-01-17T07:36:12.112Z,2.23
2023-01-17T07:38:40.352Z,2.19
2023-01-17T07:41:09.334Z,2.30
2023-01-17T07:43:38.385Z,1.98
2023-01-17T07:46:07.098Z,2.03
2023-01-17T07:48:34.806Z,2.19
2023-01-17T07:51:02.310Z,2.23
2023-01-17T07:53:32.953Z,1.95
2023-01-17T07:56:02.014Z,2.06
2023-01-17T07:58:29.774Z,2.00
2023-01-17T08:01:02.364Z,1.98
2023-01-17T08:03:32.235Z,2.22
2023-01-17T08:05:59.983Z,2.29
2023-01-17T08:08:27.424Z,1.98
2023-01-17T08:10:56.207Z,2.02
2023-01-17T08:13:23.754Z,1.99
2023-01-17T08:15:52.191Z,2.07
2023-01-17T08:18:19.660Z,2.15
2023-01-17T08:20:47.149Z,2.20
2023-01-17T08:23:14.689Z,2.28
2023-01-17T08:25:42.169Z,2.25
2023-01-17T08:28:10.996Z,2.06
2023-01-17T08:30:38.535Z,2.01
2023-01-17T08:33:06.124Z,1.83
2023-01-17T08:35:36.017Z,2.11
2023-01-17T08:38:04.834Z,2.09
2023-01-17T08:40:33.488Z,2.02
2023-01-17T08:43:01.915Z,2.08
2023-01-17T08:45:30.710Z,1.97
2023-01-17T08:47:58.960Z,2.14
2023-01-17T08:50:26.981Z,2.11
2023-01-17T08:53:01.054Z,2.05
2023-01-17T08:55:29.136Z,2.05
2023-01-17T08:57:57.414Z,2.04
2023-01-17T09:00:25.034Z,2.38
2023-01-17T09:02:54.171Z,2.17
2023-01-17T09:05:21.665Z,2.33
2023-01-17T09:07:49.101Z,2.21
2023-01-17T09:10:17.186Z,2.32
2023-01-17T09:12:44.657Z,2.21
2023-01-17T09:15:14.605Z,2.36
2023-01-17T09:17:42.071Z,2.34
2023-01-17T09:20:12.500Z,2.14
2023-01-17T09:22:39.975Z,2.34
2023-01-17T09:25:08.519Z,2.29
2023-01-17T09:27:35.977Z,2.25
2023-01-17T09:30:03.729Z,2.34
2023-01-17T09:32:31.183Z,2.35
2023-01-17T09:35:00.692Z,2.24
2023-01-17T09:37:29.994Z,2.49
2023-01-17T09:39:57.489Z,2.22
2023-01-17T09:42:31.677Z,2.29
2023-01-17T09:44:59.826Z,2.43
2023-01-17T09:47:34.050Z,2.41
2023-01-17T09:50:08.380Z,2.51
2023-01-17T09:52:37.284Z,2.59
2023-01-17T09:55:07.974Z,2.56
2023-01-17T09:57:42.338Z,2.59
2023-01-17T10:00:17.230Z,2.67
2023-01-17T10:02:55.723Z,2.54
2023-01-17T10:05:34.909Z,2.72
2023-01-17T10:08:14.245Z,2.53
2023-01-17T10:10:43.151Z,2.63
2023-01-17T10:13:25.107Z,2.52
2023-01-17T10:16:01.587Z,2.76
2023-01-17T10:18:45.616Z,2.65
2023-01-17T10:21:15.833Z,2.81
2023-01-17T10:23:59.126Z,2.81
2023-01-17T10:26:26.740Z,2.78
2023-01-17T10:28:56.420Z,2.83
2023-01-17T10:31:25.070Z,2.74
2023-01-17T10:33:53.957Z,2.89
2023-01-17T10:36:22.898Z,2.86
2023-01-17T10:38:53.527Z,2.90
2023-01-17T10:41:26.685Z,2.87
2023-01-17T10:44:02.409Z,3.07
2023-01-17T10:46:33.766Z,3.00
2023-01-17T10:49:02.206Z,2.92
2023-01-17T10:51:45.932Z,3.02
2023-01-17T10:54:24.309Z,3.03
2023-01-17T10:56:51.856Z,2.83
2023-01-17T10:59:29.323Z,3.09
2023-01-17T11:01:56.900Z,3.13
2023-01-17T11:04:32.305Z,3.00
2023-01-17T11:07:14.324Z,3.21
2023-01-17T11:09:44.267Z,3.18
2023-01-17T11:12:24.953Z,2.62
2023-01-17T11:14:58.714Z,2.98
2023-01-17T11:17:27.492Z,2.88
2023-01-17T11:19:55.567Z,3.12
2023-01-17T11:22:24.899Z,3.01
2023-01-17T11:24:54.876Z,3.22
2023-01-17T11:27:26.773Z,3.25
2023-01-17T11:30:07.381Z,3.33
2023-01-17T11:32:35.627Z,3.49
2023-01-17T11:35:08.553Z,3.41
2023-01-17T11:37:36.708Z,3.59
2023-01-17T11:40:14.411Z,3.75
2023-01-17T11:42:41.897Z,3.53
2023-01-17T11:45:24.882Z,3.72
2023-01-17T11:48:06.024Z,3.60
2023-01-17T11:50:33.492Z,3.68
2023-01-17T11:53:06.780Z,3.72
2023-01-17T11:55:35.612Z,3.58
2023-01-17T11:58:03.099Z,3.72
2023-01-17T12:00:35.009Z,3.72
2023-01-17T12:03:13.820Z,3.75
2023-01-17T12:05:51.451Z,3.92
2023-01-17T12:08:27.769Z,4.00
2023-01-17T12:11:01.843Z,4.07
2023-01-17T12:13:53.486Z,4.08
2023-01-17T12:16:30.908Z,4.08
2023-01-17T12:19:09.298Z,3.98
2023-01-17T12:21:45.078Z,4.12
2023-01-17T12:24:29.042Z,3.89
2023-01-17T12:27:00.920Z,3.91
2023-01-17T12:29:43.057Z,4.06
2023-01-17T12:32:27.912Z,3.92
2023-01-17T12:34:58.310Z,3.64
2023-01-17T12:37:30.440Z,3.83
2023-01-17T12:39:59.275Z,3.82
2023-01-17T12:42:32.982Z,3.77
2023-01-17T12:45:02.853Z,3.57
2023-01-17T12:47:31.093Z,3.92
2023-01-17T12:50:05.280Z,3.82
2023-01-17T12:52:46.372Z,3.89
2023-01-17T12:55:17.696Z,3.71
2023-01-17T12:57:49.453Z,3.65
2023-01-17T13:00:19.571Z,3.71
2023-01-17T13:02:51.476Z,3.69
2023-01-17T13:05:23.610Z,3.56
2023-01-17T13:07:56.527Z,3.62
2023-01-17T13:10:35.344Z,3.56
2023-01-17T13:13:14.273Z,3.55
2023-01-17T13:15:43.832Z,3.70
2023-01-17T13:18:15.983Z,3.45
2023-01-17T13:20:57.859Z,3.61
2023-01-17T13:23:30.378Z,3.43
2023-01-17T13:25:59.497Z,3.38
2023-01-17T13:28:37.311Z,3.47
2023-01-17T13:31:21.575Z,3.60
2023-01-17T13:34:02.203Z,3.44
2023-01-17T13:36:50.500Z,3.59
2023-01-17T13:39:50.118Z,3.66
2023-01-17T13:42:24.285Z,3.48
2023-01-17T13:44:53.145Z,3.39
2023-01-17T13:47:41.421Z,3.47
2023-01-17T13:50:42.688Z,3.53
2023-01-17T13:53:58.949Z,3.63
2023-01-17T13:56:34.447Z,3.59
2023-01-17T13:59:05.157Z,3.50
2023-01-17T14:01:52.388Z,3.31
2023-01-17T14:04:20.496Z,3.43
2023-01-17T14:06:50.078Z,3.60
2023-01-17T14:09:25.124Z,3.54
2023-01-17T14:12:05.868Z,3.51
2023-01-17T14:14:52.033Z,3.56
2023-01-17T14:17:57.981Z,3.62
2023-01-17T14:20:40.539Z,3.49
2023-01-17T14:23:33.890Z,3.77
2023-01-17T14:26:15.026Z,3.88
2023-01-17T14:28:42.502Z,3.93
2023-01-17T14:31:11.422Z,4.05
2023-01-17T14:33:41.932Z,3.93
2023-01-17T14:36:19.522Z,3.70
2023-01-17T14:38:47.132Z,4.02
2023-01-17T14:41:18.347Z,3.67
2023-01-17T14:43:46.617Z,3.71
2023-01-17T14:46:18.692Z,3.95
2023-01-17T14:48:47.668Z,3.84
2023-01-17T14:51:20.088Z,3.99
2023-01-17T14:53:54.030Z,3.95
2023-01-17T14:56:21.541Z,3.63
2023-01-17T14:58:49.125Z,3.61
2023-01-17T15:01:20.053Z,3.77
2023-01-17T15:03:51.632Z,3.92
2023-01-17T15:06:21.495Z,3.94
2023-01-17T15:08:49.619Z,3.68
2023-01-17T15:11:19.783Z,3.62
2023-01-17T15:13:49.980Z,3.55
2023-01-17T15:16:23.106Z,3.63
2023-01-17T15:18:52.577Z,3.54
2023-01-17T15:21:21.379Z,3.51
2023-01-17T15:23:50.270Z,3.43
2023-01-17T15:26:19.588Z,3.47
2023-01-17T15:28:47.492Z,3.21
2023-01-17T15:31:17.116Z,2.90
2023-01-17T15:33:46.596Z,3.19
2023-01-17T15:36:28.805Z,2.95
2023-01-17T15:39:00.039Z,2.84
2023-01-17T15:41:30.827Z,2.88
2023-01-17T15:43:58.806Z,3.02
2023-01-17T15:46:30.991Z,2.84
2023-01-17T15:49:17.313Z,2.50
2023-01-17T15:51:52.362Z,2.58
2023-01-17T15:54:35.749Z,2.69
2023-01-17T15:57:05.262Z,2.34
2023-01-17T15:59:43.749Z,2.34
2023-01-17T16:02:28.340Z,2.17
2023-01-17T16:04:55.950Z,2.28
2023-01-17T16:07:31.563Z,2.20
2023-01-17T16:10:06.358Z,2.03
2023-01-17T16:12:33.834Z,1.97
2023-01-17T16:15:12.324Z,1.92
2023-01-17T16:17:41.247Z,1.92
2023-01-17T16:20:15.944Z,1.66
2023-01-17T16:22:44.736Z,1.60
2023-01-17T16:25:16.221Z,1.81
2023-01-17T16:27:43.718Z,1.83
2023-01-17T16:30:15.198Z,1.69
2023-01-17T16:32:42.965Z,1.93
2023-01-17T16:35:18.900Z,1.87
2023-01-17T16:37:50.021Z,1.86
2023-01-17T16:40:17.921Z,1.90
2023-01-17T16:42:45.895Z,1.99
2023-01-17T16:45:14.815Z,1.79
2023-01-17T16:47:43.181Z,1.52
2023-01-17T16:50:12.535Z,1.50
2023-01-17T16:52:40.261Z,1.32
2023-01-17T16:55:12.168Z,1.23
2023-01-17T16:57:39.886Z,1.13
2023-01-17T17:00:08.526Z,1.12
2023-01-17T17:02:36.145Z,1.05
2023-01-17T17:05:05.365Z,0.90
2023-01-17T17:07:32.821Z,-0.03
2023-01-17T17:10:00.340Z,0.35
2023-01-17T17:12:29.129Z,0.43
2023-01-17T17:14:56.600Z,0.49
2023-01-17T17:17:24.096Z,0.39
2023-01-17T17:19:51.561Z,-0.05
2023-01-17T17:22:19.356Z,0.61
2023-01-17T17:24:46.941Z,0.45
2023-01-17T17:27:14.523Z,0.46
2023-01-17T17:29:43.286Z,0.56
2023-01-17T17:32:11.553Z,-0.18
2023-01-17T17:34:39.172Z,-0.39
2023-01-17T17:37:06.645Z,-1.15
2023-01-17T17:39:34.095Z,-1.54
2023-01-17T17:42:01.551Z,-1.78
2023-01-17T17:44:29.209Z,-1.92
2023-01-17T17:46:58.026Z,-1.79
2023-01-17T17:49:25.730Z,-1.54
2023-01-17T17:51:53.471Z,-1.92
2023-01-17T17:54:22.048Z,-1.90
2023-01-17T17:56:49.716Z,-2.07
2023-01-17T17:59:19.463Z,-2.24
2023-01-17T18:01:48.023Z,-2.23
2023-01-17T18:04:17.004Z,-2.17
2023-01-17T18:06:45.273Z,-2.29
2023-01-17T18:09:13.712Z,-2.23
2023-01-17T18:11:42.608Z,-2.42
2023-01-17T18:14:12.353Z,-2.46
2023-01-17T18:16:42.132Z,-2.46
2023-01-17T18:19:12.590Z,-2.51
2023-01-17T18:21:41.723Z,-2.50
2023-01-17T18:24:11.228Z,-2.57
2023-01-17T18:26:40.040Z,-2.42
2023-01-17T18:29:09.560Z,-1.94
2023-01-17T18:31:37.411Z,-1.68
2023-01-17T18:34:06.791Z,-2.38
2023-01-17T18:36:35.646Z,-2.65
2023-01-17T18:39:06.345Z,-2.23
2023-01-17T18:41:34.594Z,-1.91
2023-01-17T18:44:04.975Z,-2.55
2023-01-17T18:46:33.000Z,-2.66
2023-01-17T18:49:00.625Z,-2.74
2023-01-17T18:51:31.758Z,-2.74
2023-01-17T18:54:02.800Z,-2.79
2023-01-17T18:56:34.124Z,-2.96
2023-01-17T18:59:01.953Z,-2.85
2023-01-17T19:01:30.734Z,-2.75
2023-01-17T19:04:00.018Z,-2.94
2023-01-17T19:06:30.387Z,-3.00
2023-01-17T19:08:58.862Z,-3.00
2023-01-17T19:11:27.788Z,-3.12
2023-01-17T19:13:57.374Z,-3.17
2023-01-17T19:16:27.974Z,-3.19
2023-01-17T19:18:56.487Z,-3.26
2023-01-17T19:21:25.849Z,-3.22
2023-01-17T19:23:54.454Z,-3.21
2023-01-17T19:26:23.863Z,-3.18
2023-01-17T19:28:51.854Z,-3.22
2023-01-17T19:31:22.171Z,-3.21
2023-01-17T19:33:51.204Z,-3.00
2023-01-17T19:36:20.954Z,-2.78
2023-01-17T19:39:02.983Z,-2.75
2023-01-17T19:41:31.831Z,-2.24
2023-01-17T19:44:01.945Z,-2.27
2023-01-17T19:46:31.561Z,-2.84
2023-01-17T19:48:59.550Z,-3.07
2023-01-17T19:51:27.641Z,-3.06
2023-01-17T19:53:55.678Z,-3.03
2023-01-17T19:56:25.369Z,-3.28
2023-01-17T19:58:53.344Z,-3.21
2023-01-17T20:01:24.504Z,-3.15
2023-01-17T20:03:55.006Z,-3.31
2023-01-17T20:06:25.749Z,-3.39
2023-01-17T20:08:53.206Z,-3.50
2023-01-17T20:11:22.188Z,-3.63
2023-01-17T20:13:53.038Z,-3.57
2023-01-17T20:16:20.878Z,-3.55
2023-01-17T20:18:48.830Z,-3.54
2023-01-17T20:21:19.126Z,-3.56
2023-01-17T20:23:47.864Z,-3.55
2023-01-17T20:26:16.766Z,-3.66
2023-01-17T20:28:48.186Z,-3.68
2023-01-17T20:31:17.078Z,-3.67
2023-01-17T20:33:46.883Z,-3.73
2023-01-17T20:36:15.876Z,-3.78
2023-01-17T20:38:45.210Z,-3.72
2023-01-17T20:41:14.536Z,-3.83
2023-01-17T20:43:42.709Z,-3.77
2023-01-17T20:46:10.632Z,-3.98
2023-01-17T20:48:39.054Z,-3.93
2023-01-17T20:51:10.644Z,-3.96
2023-01-17T20:53:38.837Z,-3.97
2023-01-17T20:56:08.902Z,-3.96
2023-01-17T20:58:38.403Z,-3.97
2023-01-17T21:01:06.854Z,-4.01
2023-01-17T21:03:35.592Z,-4.04
2023-01-17T21:06:04.331Z,-4.00
2023-01-17T21:08:33.059Z,-4.00
2023-01-17T21:11:00.679Z,-4.01
2023-01-17T21:13:29.750Z,-3.99
2023-01-17T21:15:57.411Z,-4.04
2023-01-17T21:18:25.894Z,-4.06
2023-01-17T21:20:53.463Z,-4.13
2023-01-17T21:23:21.151Z,-4.08
2023-01-17T21:25:58.419Z,-4.03
2023-01-17T21:28:27.949Z,-3.97
2023-01-17T21:30:57.632Z,-3.61
2023-01-17T21:33:26.333Z,-3.57
2023-01-17T21:35:53.972Z,-3.91
2023-01-17T21:38:21.905Z,-3.96
2023-01-17T21:40:49.410Z,-4.05
2023-01-17T21:43:16.884Z,-4.08
2023-01-17T21:45:44.314Z,-4.09
2023-01-17T21:48:13.284Z,-4.19
2023-01-17T21:50:40.844Z,-4.12
2023-01-17T21:53:09.914Z,-3.79
2023-01-17T21:55:55.598Z,-3.79
2023-01-17T21:58:41.208Z,-4.02
2023-01-17T22:01:11.038Z,-3.99
2023-01-17T22:03:39.892Z,-4.02
2023-01-17T22:06:07.787Z,-3.91
2023-01-17T22:08:35.737Z,-3.94
2023-01-17T22:11:04.333Z,-3.96
2023-01-17T22:13:33.200Z,-4.09
2023-01-17T22:16:02.225Z,-3.68
2023-01-17T22:18:30.028Z,-3.91
2023-01-17T22:20:59.270Z,-3.91
2023-01-17T22:23:26.776Z,-3.64
2023-01-17T22:25:54.228Z,-3.69
2023-01-17T22:28:21.928Z,-3.66
2023-01-17T22:30:49.651Z,-3.57
2023-01-17T22:33:17.286Z,-3.81
2023-01-17T22:35:44.774Z,-3.77
2023-01-17T22:38:13.643Z,-3.92
2023-01-17T22:40:41.142Z,-3.99
2023-01-17T22:43:08.595Z,-4.08
2023-01-17T22:45:36.234Z,-4.16
2023-01-17T22:48:03.689Z,-4.13
2023-01-17T22:50:31.191Z,-4.23
2023-01-17T22:52:59.004Z,-4.28
2023-01-17T22:55:27.997Z,-4.30
2023-01-17T22:57:55.588Z,-4.34
2023-01-17T23:00:23.034Z,-4.37
2023-01-17T23:02:50.559Z,-4.37
2023-01-17T23:05:18.281Z,-4.34
2023-01-17T23:07:50.348Z,-4.28
2023-01-17T23:10:39.085Z,-4.25
2023-01-17T23:13:10.884Z,-4.31
2023-01-17T23:15:56.588Z,-4.28
2023-01-17T23:18:41.789Z,-4.30
2023-01-17T23:21:09.480Z,-4.30
2023-01-17T23:23:36.992Z,-4.32
2023-01-17T23:26:04.443Z,-4.35
2023-01-17T23:28:32.318Z,-4.42
2023-01-17T23:31:03.454Z,-4.38
2023-01-17T23:33:31.020Z,-4.47
2023-01-17T23:35:58.521Z,-4.46
2023-01-17T23:38:29.948Z,-4.50
2023-01-17T23:41:19.711Z,-4.59
2023-01-17T23:43:52.581Z,-4.65
2023-01-17T23:46:20.816Z,-4.68
2023-01-17T23:48:48.720Z,-4.74
2023-01-17T23:51:16.530Z,-4.71
2023-01-17T23:53:43.993Z,-4.79
2023-01-17T23:56:15.362Z,-4.77
2023-01-17T23:58:42.991Z,-4.74
